createdAt,value
2019-04-05T00:01:54.362Z,99338.67
2019-04-05T00:04:23.336Z,99333.45
2019-04-05T00:06:52.327Z,99336.19
2019-04-05T00:09:21.136Z,99341.75
2019-04-05T00:11:50.181Z,99344.41
2019-04-05T00:14:19.092Z,99335.16
2019-04-05T00:16:48.004Z,99332.13
2019-04-05T00:19:17.058Z,99324.85
2019-04-05T00:21:45.970Z,99329.05
2019-04-05T00:24:14.864Z,99335.33
2019-04-05T00:26:43.847Z,99334.07
2019-04-05T00:29:12.825Z,99323.91
2019-04-05T00:31:41.646Z,99327.27
2019-04-05T00:34:10.521Z,99327.86
2019-04-05T00:36:39.334Z,99322.08
2019-04-05T00:39:10.058Z,99333.37
2019-04-05T00:41:39.265Z,99338.59
2019-04-05T00:44:08.187Z,99340.39
2019-04-05T00:46:37.299Z,99333.84
2019-04-05T00:49:06.200Z,99340.80
2019-04-05T00:51:35.509Z,99339.16
2019-04-05T00:54:04.520Z,99338.13
2019-04-05T00:56:33.420Z,99336.09
2019-04-05T00:59:02.347Z,99330.77
2019-04-05T01:01:31.639Z,99333.22
2019-04-05T01:04:00.576Z,99341.41
2019-04-05T01:06:29.592Z,99346.98
2019-04-05T01:08:58.533Z,99352.31
2019-04-05T01:11:27.586Z,99360.18
2019-04-05T01:13:56.776Z,99367.45
2019-04-05T01:16:25.750Z,99366.12
2019-04-05T01:18:54.684Z,99367.14
2019-04-05T01:21:25.142Z,99370.92
2019-04-05T01:23:56.359Z,99369.59
2019-04-05T01:26:25.582Z,99370.30
2019-04-05T01:28:54.514Z,99367.74
2019-04-05T01:31:23.623Z,99369.13
2019-04-05T01:33:52.525Z,99359.83
2019-04-05T01:36:21.458Z,99358.64
2019-04-05T01:38:50.390Z,99358.64
2019-04-05T01:41:19.552Z,99357.38
2019-04-05T01:43:48.544Z,99360.59
2019-04-05T01:46:17.459Z,99345.50
2019-04-05T01:48:46.262Z,99346.14
2019-04-05T01:51:15.679Z,99339.88
2019-04-05T01:53:44.598Z,99341.06
2019-04-05T01:56:13.478Z,99327.75
2019-04-05T01:58:42.266Z,99329.63
2019-04-05T02:01:11.262Z,99327.20
2019-04-05T02:03:40.142Z,99333.31
2019-04-05T02:06:09.137Z,99329.97
2019-04-05T02:08:38.345Z,99333.69
2019-04-05T02:11:07.660Z,99341.36
2019-04-05T02:13:36.598Z,99340.96
2019-04-05T02:16:06.831Z,99338.84
2019-04-05T02:18:35.898Z,99333.45
2019-04-05T02:21:04.975Z,99331.44
2019-04-05T02:23:33.927Z,99328.44
2019-04-05T02:26:02.925Z,99330.23
2019-04-05T02:28:31.838Z,99330.33
2019-04-05T02:31:00.646Z,99331.97
2019-04-05T02:33:29.575Z,99340.81
2019-04-05T02:35:58.569Z,99338.94
2019-04-05T02:38:27.510Z,99333.77
2019-04-05T02:40:59.145Z,99340.47
2019-04-05T02:43:31.639Z,99329.58
2019-04-05T02:46:01.136Z,99327.73
2019-04-05T02:48:33.380Z,99326.50
2019-04-05T02:51:04.147Z,99330.25
2019-04-05T02:53:35.376Z,99345.13
2019-04-05T02:56:05.447Z,99349.95
2019-04-05T02:58:34.777Z,99351.28
2019-04-05T03:01:03.881Z,99346.67
2019-04-05T03:03:32.857Z,99349.33
2019-04-05T03:06:02.228Z,99352.72
2019-04-05T03:08:31.229Z,99359.71
2019-04-05T03:11:07.400Z,99367.40
2019-04-05T03:13:51.353Z,99367.49
2019-04-05T03:16:39.214Z,99370.86
2019-04-05T03:19:03.232Z,99381.81
2019-04-05T03:21:34.789Z,99382.84
2019-04-05T03:24:05.324Z,99382.44
2019-04-05T03:26:37.270Z,99384.53
2019-04-05T03:29:09.100Z,99379.52
2019-04-05T03:31:38.698Z,99380.33
2019-04-05T03:34:08.880Z,99392.30
2019-04-05T03:36:39.109Z,99390.58
2019-04-05T03:39:10.248Z,99387.70
2019-04-05T03:41:39.562Z,99389.34
2019-04-05T03:44:09.837Z,99377.16
2019-04-05T03:46:54.778Z,99371.22
2019-04-05T03:49:10.418Z,99383.61
2019-04-05T03:51:39.907Z,99380.17
2019-04-05T03:54:08.819Z,99380.85
2019-04-05T03:56:38.466Z,99380.48
2019-04-05T03:59:07.795Z,99381.16
2019-04-05T04:01:37.422Z,99384.08
2019-04-05T04:04:06.493Z,99382.80
2019-04-05T04:06:35.571Z,99379.58
2019-04-05T04:09:05.388Z,99386.22
2019-04-05T04:11:34.560Z,99401.06
2019-04-05T04:14:04.380Z,99403.09
2019-04-05T04:16:33.717Z,99394.72
2019-04-05T04:19:03.318Z,99388.27
2019-04-05T04:21:42.555Z,99384.78
2019-04-05T04:24:11.621Z,99384.38
2019-04-05T04:26:41.605Z,99390.36
2019-04-05T04:29:10.575Z,99383.41
2019-04-05T04:31:39.627Z,99385.95
2019-04-05T04:34:09.058Z,99383.59
2019-04-05T04:36:38.033Z,99375.15
2019-04-05T04:39:07.231Z,99377.67
2019-04-05T04:41:36.777Z,99377.36
2019-04-05T04:44:06.031Z,99382.89
2019-04-05T04:46:34.891Z,99381.70
2019-04-05T04:49:03.991Z,99378.56
2019-04-05T04:51:33.785Z,99385.37
2019-04-05T04:54:03.089Z,99381.84
2019-04-05T04:56:32.377Z,99384.16
2019-04-05T04:59:01.346Z,99382.13
2019-04-05T05:01:30.428Z,99381.80
2019-04-05T05:03:59.669Z,99376.50
2019-04-05T05:06:30.128Z,99380.00
2019-04-05T05:08:59.754Z,99378.08
2019-04-05T05:11:29.154Z,99381.76
2019-04-05T05:13:58.326Z,99379.67
2019-04-05T05:16:27.365Z,99381.95
2019-04-05T05:18:56.440Z,99383.55
2019-04-05T05:21:25.882Z,99381.76
2019-04-05T05:23:54.896Z,99379.72
2019-04-05T05:26:24.143Z,99383.59
2019-04-05T05:28:53.127Z,99383.80
2019-04-05T05:31:22.198Z,99379.81
2019-04-05T05:33:51.280Z,99377.66
2019-04-05T05:36:20.769Z,99386.37
2019-04-05T05:38:50.039Z,99389.13
2019-04-05T05:41:19.041Z,99387.19
2019-04-05T05:43:48.057Z,99388.52
2019-04-05T05:46:17.009Z,99388.78
2019-04-05T05:48:46.074Z,99382.38
2019-04-05T05:51:15.542Z,99359.30
2019-04-05T05:53:44.739Z,99373.70
2019-04-05T05:56:13.747Z,99383.16
2019-04-05T05:58:42.633Z,99382.68
2019-04-05T06:01:11.517Z,99390.36
2019-04-05T06:03:40.427Z,99400.09
2019-04-05T06:06:09.342Z,99407.88
2019-04-05T06:08:38.229Z,99408.46
2019-04-05T06:11:07.226Z,99400.88
2019-04-05T06:13:36.204Z,99412.83
2019-04-05T06:16:05.399Z,99403.91
2019-04-05T06:18:34.255Z,99409.08
2019-04-05T06:21:03.586Z,99415.38
2019-04-05T06:23:34.067Z,99413.41
2019-04-05T06:26:03.356Z,99412.48
2019-04-05T06:28:32.335Z,99413.34
2019-04-05T06:31:01.376Z,99410.88
2019-04-05T06:33:31.716Z,99420.66
2019-04-05T06:36:00.936Z,99414.72
2019-04-05T06:38:29.810Z,99414.00
2019-04-05T06:40:59.364Z,99409.54
2019-04-05T06:43:28.392Z,99407.50
2019-04-05T06:45:57.339Z,99417.14
2019-04-05T06:48:29.303Z,99418.62
2019-04-05T06:50:57.122Z,99419.45
2019-04-05T06:53:25.907Z,99417.40
2019-04-05T06:55:54.755Z,99420.38
2019-04-05T06:59:50.540Z,99414.31
2019-04-05T07:00:57.182Z,99413.00
2019-04-05T07:03:25.090Z,99416.70
2019-04-05T07:05:54.064Z,99414.78
2019-04-05T07:08:22.992Z,99410.45
2019-04-05T07:10:51.951Z,99406.55
2019-04-05T07:13:20.932Z,99408.92
2019-04-05T07:15:49.892Z,99409.22
2019-04-05T07:18:31.613Z,99413.23
2019-04-05T07:20:49.465Z,99412.73
2019-04-05T07:23:18.333Z,99411.48
2019-04-05T07:25:47.242Z,99401.66
2019-04-05T07:28:16.216Z,99402.66
2019-04-05T07:30:45.089Z,99404.39
2019-04-05T07:33:14.268Z,99405.81
2019-04-05T07:35:43.169Z,99411.38
2019-04-05T07:38:12.055Z,99410.06
2019-04-05T07:40:41.002Z,99412.73
2019-04-05T07:43:09.803Z,99417.25
2019-04-05T07:45:38.708Z,99429.77
2019-04-05T07:48:07.500Z,99415.81
2019-04-05T07:50:36.503Z,99418.66
2019-04-05T07:53:05.467Z,99413.33
2019-04-05T07:55:34.450Z,99415.80
2019-04-05T07:58:03.392Z,99419.34
2019-04-05T08:00:47.607Z,99420.45
2019-04-05T08:03:16.647Z,99416.62
2019-04-05T08:05:46.057Z,99422.41
2019-04-05T08:08:20.105Z,99418.39
2019-04-05T08:10:49.375Z,99423.39
2019-04-05T08:13:18.862Z,99422.17
2019-04-05T08:15:47.755Z,99415.86
2019-04-05T08:18:16.788Z,99412.52
2019-04-05T08:20:45.653Z,99420.05
2019-04-05T08:23:14.636Z,99417.64
2019-04-05T08:25:43.668Z,99418.28
2019-04-05T08:28:12.514Z,99421.47
2019-04-05T08:30:41.492Z,99421.83
2019-04-05T08:33:10.408Z,99422.03
2019-04-05T08:35:39.304Z,99421.87
2019-04-05T08:38:08.229Z,99423.73
2019-04-05T08:40:37.256Z,99419.75
2019-04-05T08:43:06.154Z,99420.69
2019-04-05T08:45:35.188Z,99420.02
2019-04-05T08:48:04.237Z,99419.11
2019-04-05T08:50:33.224Z,99412.78
2019-04-05T08:53:02.063Z,99419.55
2019-04-05T08:55:31.026Z,99418.22
2019-04-05T08:58:00.003Z,99418.70
2019-04-05T09:00:28.933Z,99418.28
2019-04-05T09:02:57.991Z,99413.03
2019-04-05T09:05:27.379Z,99417.70
2019-04-05T09:07:56.236Z,99419.20
2019-04-05T09:10:25.233Z,99430.67
2019-04-05T09:12:54.093Z,99427.77
2019-04-05T09:15:22.997Z,99417.17
2019-04-05T09:17:51.876Z,99422.33
2019-04-05T09:20:20.866Z,99416.17
2019-04-05T09:22:49.668Z,99419.39
2019-04-05T09:34:31.673Z,99419.97
2019-04-05T09:37:00.594Z,99421.64
2019-04-05T09:54:15.925Z,99424.31
2019-04-05T09:56:44.849Z,99425.08
2019-04-05T09:59:13.720Z,99428.77
2019-04-05T10:01:42.830Z,99424.38
2019-04-05T10:04:11.681Z,99420.69
2019-04-05T10:06:40.608Z,99427.30
2019-04-05T10:09:09.669Z,99428.37
2019-04-05T10:11:38.746Z,99423.37
2019-04-05T10:14:07.582Z,99421.85
2019-04-05T10:16:36.460Z,99421.63
2019-04-05T10:19:05.538Z,99427.09
2019-04-05T10:21:34.670Z,99423.22
2019-04-05T10:24:04.717Z,99423.96
2019-04-05T10:26:33.487Z,99425.12
2019-04-05T10:29:02.735Z,99424.23
2019-04-05T10:31:31.543Z,99418.66
2019-04-05T10:34:00.350Z,99412.50
2019-04-05T10:36:29.201Z,99416.00
2019-04-05T10:38:58.167Z,99417.92
2019-04-05T10:41:27.037Z,99412.38
2019-04-05T10:43:58.386Z,99411.06
2019-04-05T10:46:26.726Z,99408.08
2019-04-05T10:48:55.627Z,99409.06
2019-04-05T10:51:24.605Z,99408.56
2019-04-05T10:53:53.556Z,99404.52
2019-04-05T10:56:22.533Z,99407.56
2019-04-05T10:58:51.455Z,99402.78
2019-04-05T11:01:20.441Z,99405.86
2019-04-05T11:03:49.279Z,99406.91
2019-04-05T11:06:18.242Z,99392.83
2019-04-05T11:08:47.162Z,99393.45
2019-04-05T11:11:15.980Z,99388.97
2019-04-05T11:13:44.831Z,99391.37
2019-04-05T11:16:13.708Z,99383.84
2019-04-05T11:18:44.995Z,99389.95
2019-04-05T11:21:13.336Z,99393.38
2019-04-05T11:23:42.341Z,99387.27
2019-04-05T11:26:11.248Z,99387.34
2019-04-05T11:28:40.125Z,99390.91
2019-04-05T11:31:09.351Z,99394.25
2019-04-05T11:33:38.247Z,99380.78
2019-04-05T11:36:07.798Z,99384.52
2019-04-05T11:38:36.997Z,99380.35
2019-04-05T11:41:06.584Z,99378.26
2019-04-05T11:43:37.362Z,99381.20
2019-04-05T11:46:06.425Z,99376.90
2019-04-05T11:52:16.523Z,99379.61
2019-04-05T12:02:50.257Z,99372.44
2019-04-05T12:05:20.346Z,99371.94
2019-04-05T12:07:50.077Z,99376.87
2019-04-05T12:10:19.640Z,99369.89
2019-04-05T12:12:48.620Z,99365.83
2019-04-05T12:15:17.571Z,99367.98
2019-04-05T12:17:46.564Z,99369.17
2019-04-05T12:20:16.121Z,99361.42
2019-04-05T12:22:44.986Z,99359.20
2019-04-05T12:25:13.870Z,99356.37
2019-04-05T12:27:42.757Z,99359.64
2019-04-05T12:30:14.176Z,99349.76
2019-04-05T12:32:43.143Z,99349.96
2019-04-05T12:35:12.271Z,99347.16
2019-04-05T12:37:50.206Z,99349.51
2019-04-05T12:40:14.719Z,99353.10
2019-04-05T12:42:43.504Z,99348.92
2019-04-05T12:45:15.325Z,99339.53
2019-04-05T12:47:45.707Z,99335.95
2019-04-05T12:50:15.465Z,99337.39
2019-04-05T12:52:44.512Z,99343.56
2019-04-05T12:55:13.570Z,99334.78
2019-04-05T12:57:42.601Z,99341.33
2019-04-05T13:00:14.667Z,99332.63
2019-04-05T13:02:43.734Z,99332.63
2019-04-05T13:05:13.477Z,99338.19
2019-04-05T13:07:42.565Z,99343.72
2019-04-05T13:10:12.457Z,99339.56
2019-04-05T13:12:41.427Z,99340.96
2019-04-05T13:15:16.577Z,99315.29
2019-04-05T13:17:41.196Z,99341.70
2019-04-05T13:20:10.550Z,99341.63
2019-04-05T13:22:39.457Z,99345.81
2019-04-05T13:25:10.673Z,99345.81
2019-04-05T13:27:41.304Z,99346.70
2019-04-05T13:30:10.448Z,99341.42
2019-04-05T13:32:39.334Z,99337.53
2019-04-05T13:35:08.943Z,99330.75
2019-04-05T13:37:37.926Z,99332.56
2019-04-05T13:40:08.089Z,99329.58
2019-04-05T13:42:37.008Z,99330.47
2019-04-05T13:45:06.399Z,99328.01
2019-04-05T13:47:37.967Z,99330.92
2019-04-05T13:50:11.018Z,99329.95
2019-04-05T13:52:41.191Z,99317.73
2019-04-05T13:55:11.316Z,99315.58
2019-04-05T13:57:40.970Z,99314.55
2019-04-05T14:00:12.033Z,99311.11
2019-04-05T14:02:41.008Z,99306.22
2019-04-05T14:05:10.208Z,99307.03
2019-04-05T14:07:39.122Z,99314.39
2019-04-05T14:10:12.359Z,99309.33
2019-04-05T14:12:40.305Z,99305.81
2019-04-05T14:15:11.238Z,99306.30
2019-04-05T14:17:43.906Z,99302.59
2019-04-05T14:20:12.095Z,99300.35
2019-04-05T14:22:40.909Z,99296.77
2019-04-05T14:25:10.265Z,99306.12
2019-04-05T14:27:39.151Z,99295.38
2019-04-05T14:30:08.427Z,99290.50
2019-04-05T14:32:37.430Z,99292.59
2019-04-05T14:35:08.026Z,99292.30
2019-04-05T14:37:37.364Z,99290.78
2019-04-05T14:40:06.755Z,99286.30
2019-04-05T14:42:35.633Z,99290.53
2019-04-05T14:45:05.413Z,99286.80
2019-04-05T14:47:34.287Z,99289.48
2019-04-05T14:50:03.231Z,99288.69
2019-04-05T14:52:32.098Z,99287.05
2019-04-05T14:55:01.739Z,99298.16
2019-04-05T14:57:30.600Z,99290.31
2019-04-05T14:59:59.497Z,99293.16
2019-04-05T15:02:28.385Z,99296.73
2019-04-05T15:04:57.462Z,99303.56
2019-04-05T15:07:26.401Z,99299.33
2019-04-05T15:09:55.761Z,99295.33
2019-04-05T15:12:28.586Z,99300.98
2019-04-05T15:14:55.289Z,99292.80
2019-04-05T15:17:24.177Z,99290.94
2019-04-05T15:19:52.979Z,99291.54
2019-04-05T15:22:21.845Z,99300.94
2019-04-05T15:24:50.677Z,99292.52
2019-04-05T15:27:21.713Z,99293.91
2019-04-05T15:29:50.390Z,99296.61
2019-04-05T15:32:19.444Z,99298.33
2019-04-05T15:34:48.296Z,99297.95
2019-04-05T15:37:17.181Z,99295.36
2019-04-05T15:39:46.152Z,99292.52
2019-04-05T15:42:15.079Z,99295.49
2019-04-05T15:44:44.109Z,99296.08
2019-04-05T15:47:13.769Z,99291.93
2019-04-05T15:49:42.826Z,99292.73
2019-04-05T15:52:18.504Z,99285.81
2019-04-05T15:54:43.256Z,99279.42
2019-04-05T15:57:12.730Z,99285.91
2019-04-05T15:59:41.699Z,99287.98
2019-04-05T16:02:10.492Z,99284.27
2019-04-05T16:04:39.430Z,99289.84
2019-04-05T16:07:08.424Z,99289.84
2019-04-05T16:09:37.431Z,99294.66
2019-04-05T16:12:06.884Z,99299.14
2019-04-05T16:14:35.785Z,99300.99
2019-04-05T16:17:04.946Z,99306.13
2019-04-05T16:19:33.808Z,99297.57
2019-04-05T16:22:02.727Z,99305.75
2019-04-05T16:24:31.901Z,99299.48
2019-04-05T16:27:00.848Z,99301.56
2019-04-05T16:29:29.824Z,99300.62
2019-04-05T16:31:58.844Z,99302.48
2019-04-05T16:34:27.737Z,99301.27
2019-04-05T16:36:56.538Z,99305.06
2019-04-05T16:39:25.512Z,99301.10
2019-04-05T16:41:54.451Z,99304.83
2019-04-05T16:44:23.276Z,99303.03
2019-04-05T16:46:52.150Z,99306.74
2019-04-05T16:49:21.003Z,99303.78
2019-04-05T16:51:49.987Z,99307.05
2019-04-05T16:54:18.810Z,99310.29
2019-04-05T16:56:47.741Z,99306.34
2019-04-05T16:59:16.742Z,99313.54
2019-04-05T17:01:45.667Z,99308.66
2019-04-05T17:04:14.507Z,99300.92
2019-04-05T17:06:43.346Z,99317.67
2019-04-05T17:09:12.289Z,99316.73
2019-04-05T17:11:42.463Z,99320.82
2019-04-05T17:14:11.373Z,99321.27
2019-04-05T17:16:40.365Z,99329.40
2019-04-05T17:19:09.233Z,99321.31
2019-04-05T17:21:38.172Z,99328.11
2019-04-05T17:24:07.067Z,99326.00
2019-04-05T17:26:35.975Z,99326.20
2019-04-05T17:29:05.143Z,99324.16
2019-04-05T17:31:34.041Z,99327.02
2019-04-05T17:34:03.004Z,99332.36
2019-04-05T17:36:31.914Z,99331.00
2019-04-05T17:39:00.828Z,99331.48
2019-04-05T17:41:29.782Z,99326.02
2019-04-05T17:43:58.768Z,99328.91
2019-04-05T17:46:27.688Z,99331.30
2019-04-05T17:48:56.576Z,99330.29
2019-04-05T17:51:25.577Z,99320.10
2019-04-05T17:53:54.426Z,99324.41
2019-04-05T17:56:23.548Z,99327.49
2019-04-05T17:58:53.721Z,99326.00
2019-04-05T18:01:22.659Z,99328.42
2019-04-05T18:03:52.056Z,99331.69
2019-04-05T18:06:21.012Z,99335.89
2019-04-05T18:08:49.958Z,99334.36
2019-04-05T18:11:18.771Z,99329.62
2019-04-05T18:13:48.120Z,99334.47
2019-04-05T18:16:16.919Z,99335.95
2019-04-05T18:18:45.827Z,99340.67
2019-04-05T18:21:14.910Z,99339.85
2019-04-05T18:23:43.727Z,99338.12
2019-04-05T18:26:12.663Z,99336.48
2019-04-05T18:28:41.493Z,99345.59
2019-04-05T18:31:10.428Z,99344.47
2019-04-05T18:33:39.455Z,99350.22
2019-04-05T18:36:08.702Z,99341.97
2019-04-05T18:38:37.556Z,99350.73
2019-04-05T18:41:06.586Z,99351.03
2019-04-05T18:43:35.721Z,99347.98
2019-04-05T18:46:04.905Z,99349.83
2019-04-05T18:48:33.903Z,99348.80
2019-04-05T18:51:02.763Z,99355.88
2019-04-05T18:53:37.466Z,99355.58
2019-04-05T18:56:02.345Z,99355.78
2019-04-05T18:58:31.133Z,99353.52
2019-04-05T19:01:00.132Z,99353.51
2019-04-05T19:03:29.113Z,99360.52
2019-04-05T19:05:58.208Z,99361.95
2019-04-05T19:08:39.110Z,99365.23
2019-04-05T19:10:57.834Z,99370.58
2019-04-05T19:13:26.835Z,99362.77
2019-04-05T19:15:55.808Z,99369.55
2019-04-05T19:18:24.855Z,99370.50
2019-04-05T19:20:54.013Z,99372.44
2019-04-05T19:23:22.819Z,99372.84
2019-04-05T19:25:51.658Z,99374.70
2019-04-05T19:28:20.587Z,99377.99
2019-04-05T19:50:55.402Z,99370.06
2019-04-05T19:53:24.700Z,99361.98
2019-04-05T19:55:53.573Z,99364.75
2019-04-05T19:58:22.477Z,99361.37
2019-04-05T20:00:51.359Z,99357.07
2019-04-05T20:03:20.156Z,99356.20
2019-04-05T20:05:49.147Z,99362.58
2019-04-05T20:08:18.064Z,99361.08
2019-04-05T20:10:47.110Z,99358.94
2019-04-05T20:13:15.981Z,99355.00
2019-04-05T20:15:44.746Z,99355.00
2019-04-05T20:18:13.712Z,99359.52
2019-04-05T20:20:42.543Z,99356.41
2019-04-05T20:23:11.423Z,99360.08
2019-04-05T20:25:40.293Z,99368.34
2019-04-05T20:28:09.241Z,99363.09
2019-04-05T20:30:38.134Z,99367.09
2019-04-05T20:33:07.061Z,99363.52
2019-04-05T20:35:36.182Z,99359.91
2019-04-05T20:38:05.187Z,99360.95
2019-04-05T20:40:34.047Z,99366.41
2019-04-05T20:43:03.082Z,99361.68
2019-04-05T20:45:31.935Z,99368.14
2019-04-05T20:48:00.706Z,99363.62
2019-04-05T20:50:29.614Z,99372.87
2019-04-05T20:52:58.455Z,99371.30
2019-04-05T20:55:27.482Z,99370.19
2019-04-05T20:57:56.256Z,99372.85
2019-04-05T21:00:25.092Z,99373.07
2019-04-05T21:02:53.896Z,99369.65
2019-04-05T21:05:25.483Z,99370.47
2019-04-05T21:07:53.333Z,99372.60
2019-04-05T21:10:22.216Z,99369.41
2019-04-05T21:12:51.026Z,99363.36
2019-04-05T21:15:19.899Z,99365.64
2019-04-05T21:17:48.797Z,99369.84
2019-04-05T21:20:17.964Z,99368.16
2019-04-05T21:22:46.855Z,99368.52
2019-04-05T21:25:15.809Z,99363.05
2019-04-05T21:27:44.690Z,99372.32
2019-04-05T21:30:13.977Z,99377.45
2019-04-05T21:32:42.945Z,99373.44
2019-04-05T21:35:11.952Z,99375.61
2019-04-05T21:37:40.903Z,99377.17
2019-04-05T21:40:10.107Z,99376.66
2019-04-05T21:42:39.062Z,99378.91
2019-04-05T21:45:08.130Z,99375.55
2019-04-05T21:47:37.093Z,99345.18
2019-04-05T21:50:06.577Z,99377.58
2019-04-05T21:52:35.368Z,99380.38
2019-04-05T21:55:04.410Z,99379.27
2019-04-05T21:57:33.206Z,99375.55
2019-04-05T22:00:02.106Z,99373.19
2019-04-05T22:02:31.070Z,99371.42
2019-04-05T22:05:01.326Z,99375.63
2019-04-05T22:07:30.396Z,99373.47
2019-04-05T22:09:59.327Z,99377.48
2019-04-05T22:12:28.318Z,99377.09
2019-04-05T22:14:57.220Z,99379.55
2019-04-05T22:17:26.145Z,99380.24
2019-04-05T22:19:55.126Z,99382.28
2019-04-05T22:22:23.916Z,99382.70
2019-04-05T22:24:59.201Z,99383.92
2019-04-05T22:27:23.682Z,99383.23
2019-04-05T22:29:52.638Z,99382.89
2019-04-05T22:32:21.533Z,99371.59
2019-04-05T22:34:50.486Z,99372.10
2019-04-05T22:37:19.437Z,99375.39
2019-04-05T22:39:48.442Z,99378.18
2019-04-05T22:42:17.232Z,99378.71
2019-04-05T22:44:46.111Z,99375.22
2019-04-05T22:47:14.978Z,99375.61
2019-04-05T22:49:43.861Z,99369.53
2019-04-05T22:52:12.669Z,99365.33
2019-04-05T22:54:41.587Z,99361.35
2019-04-05T22:57:10.698Z,99353.67
2019-04-05T22:59:39.578Z,99359.63
2019-04-05T23:02:08.546Z,99368.58
2019-04-05T23:04:37.460Z,99365.48
2019-04-05T23:07:06.272Z,99363.94
2019-04-05T23:09:35.071Z,99363.44
2019-04-05T23:12:03.930Z,99368.37
2019-04-05T23:14:33.042Z,99372.17
2019-04-05T23:17:02.084Z,99368.77
2019-04-05T23:19:30.981Z,99369.09
2019-04-05T23:22:01.018Z,99369.09
2019-04-05T23:24:30.137Z,99370.44
2019-04-05T23:26:58.961Z,99373.41
2019-04-05T23:29:28.018Z,99374.75
2019-04-05T23:31:56.862Z,99370.83
2019-04-05T23:34:25.814Z,99374.23
2019-04-05T23:36:54.653Z,99377.09
2019-04-05T23:39:23.629Z,99368.37
2019-04-05T23:41:52.571Z,99370.83
2019-04-05T23:44:21.442Z,99371.95
2019-04-05T23:46:52.601Z,99377.42
2019-04-05T23:49:20.859Z,99375.45
2019-04-05T23:51:49.646Z,99373.30
2019-04-05T23:54:18.455Z,99369.72
2019-04-05T23:56:47.390Z,99363.05
2019-04-05T23:59:16.301Z,99367.05
